Time;durP1;ratioP1;P1;durP2;ratioP2;P2;SDS_P1;SDS_P2;PMS_P1;PMS_P2;Temp;Humidity;BMP_temperature;BMP_pressure;BME280_temperature;BME280_humidity;BME280_pressure;Samples;Min_cycle;Max_cycle;Signal;HPM_P1;HPM_P2
2022/09/11 00:01:17;;;;;;;18.48;15.45;;;18.40;96.80;;;;;;5074213;28;20032;-73
2022/09/11 00:03:44;;;;;;;18.60;15.00;;;18.50;96.70;;;;;;5074171;28;20025;-72
2022/09/11 00:06:13;;;;;;;21.08;15.27;;;18.50;96.60;;;;;;5073965;28;20024;-72
2022/09/11 00:08:40;;;;;;;20.50;16.25;;;18.50;96.60;;;;;;5074046;28;20052;-72
2022/09/11 00:11:12;;;;;;;18.38;15.95;;;18.40;96.60;;;;;;5074268;28;20048;-72
2022/09/11 00:13:39;;;;;;;20.80;16.63;;;18.30;96.70;;;;;;5073983;28;20063;-72
2022/09/11 00:16:18;;;;;;;18.23;15.25;;;18.20;96.70;;;;;;5073948;28;20036;-72
2022/09/11 00:18:45;;;;;;;21.42;15.50;;;18.20;96.90;;;;;;5074248;28;20108;-72
2022/09/11 00:21:11;;;;;;;17.73;15.32;;;18.20;96.90;;;;;;5073565;28;20029;-72
2022/09/11 00:23:37;;;;;;;17.58;15.25;;;18.20;97.00;;;;;;5073821;28;20023;-72
2022/09/11 00:26:03;;;;;;;17.92;15.93;;;18.20;96.90;;;;;;5073666;28;20025;-72
2022/09/11 00:28:29;;;;;;;14.30;12.60;;;18.20;96.80;;;;;;5073583;28;20068;-72
2022/09/11 00:31:00;;;;;;;14.38;12.88;;;18.20;96.80;;;;;;5073741;28;20096;-72
2022/09/11 00:33:27;;;;;;;18.90;14.95;;;18.20;96.80;;;;;;5073765;28;20038;-72
2022/09/11 00:35:57;;;;;;;17.73;15.40;;;18.10;96.80;;;;;;5073750;28;20029;-72
2022/09/11 00:38:28;;;;;;;20.30;18.13;;;18.10;96.80;;;;;;5073816;28;20028;-72
2022/09/11 00:40:55;;;;;;;13.43;10.70;;;18.00;96.90;;;;;;5073792;28;20032;-72
2022/09/11 00:43:20;;;;;;;11.70;9.65;;;17.90;97.10;;;;;;5073379;28;20126;-72
2022/09/11 00:45:53;;;;;;;18.75;15.90;;;18.00;97.10;;;;;;5073661;28;20115;-72
2022/09/11 00:48:23;;;;;;;23.30;18.48;;;18.00;97.00;;;;;;5073745;28;20439;-72
2022/09/11 00:50:51;;;;;;;20.17;16.05;;;17.90;97.00;;;;;;5073368;28;20029;-72
2022/09/11 00:53:19;;;;;;;20.63;17.85;;;17.80;97.10;;;;;;5073394;28;20059;-72
2022/09/11 00:55:50;;;;;;;16.73;15.02;;;17.90;97.20;;;;;;5073584;28;20111;-72
2022/09/11 00:58:18;;;;;;;21.15;18.42;;;17.90;97.20;;;;;;5073342;28;20029;-72
2022/09/11 01:00:45;;;;;;;18.05;16.17;;;17.90;97.10;;;;;;5073323;28;20032;-72
2022/09/11 01:03:11;;;;;;;19.00;17.00;;;17.90;97.10;;;;;;5073200;28;20032;-72
2022/09/11 01:05:40;;;;;;;21.05;17.00;;;17.90;97.20;;;;;;5072987;28;20028;-72
2022/09/11 01:08:06;;;;;;;17.50;15.15;;;17.80;97.40;;;;;;5073434;28;20025;-72
2022/09/11 01:10:55;;;;;;;19.90;17.50;;;17.90;97.20;;;;;;5073411;28;20020;-72
2022/09/11 01:13:38;;;;;;;18.58;16.58;;;17.80;97.20;;;;;;5073441;28;20055;-72
2022/09/11 01:16:22;;;;;;;11.05;9.95;;;17.80;97.30;;;;;;5072824;28;20131;-72
2022/09/11 01:19:05;;;;;;;18.20;15.43;;;17.80;97.30;;;;;;5073097;28;20021;-72
2022/09/11 01:21:39;;;;;;;15.43;13.73;;;17.90;97.20;;;;;;5073236;28;20021;-72
2022/09/11 01:24:15;;;;;;;10.60;9.43;;;17.90;97.10;;;;;;5073006;28;20392;-72
2022/09/11 01:26:46;;;;;;;13.07;11.77;;;18.10;97.00;;;;;;5073415;28;20020;-72
2022/09/11 01:29:40;;;;;;;15.10;13.60;;;18.00;96.80;;;;;;5073154;28;20040;-72
2022/09/11 01:32:27;;;;;;;15.00;13.40;;;17.90;96.80;;;;;;5073330;28;20070;-72
2022/09/11 01:35:00;;;;;;;16.38;14.20;;;17.80;96.90;;;;;;5076934;28;20264;-72
2022/09/11 01:37:47;;;;;;;15.88;11.52;;;17.80;96.90;;;;;;5077027;28;20028;-72
2022/09/11 01:40:29;;;;;;;17.75;15.23;;;17.90;96.90;;;;;;5077250;28;20028;-72
2022/09/11 01:43:05;;;;;;;11.90;10.75;;;17.80;96.80;;;;;;5076680;28;20039;-72
2022/09/11 01:45:32;;;;;;;16.08;14.40;;;17.70;96.80;;;;;;5077152;28;20036;-72
2022/09/11 01:47:59;;;;;;;17.55;15.60;;;17.70;96.90;;;;;;5076764;28;20028;-72
2022/09/11 01:50:29;;;;;;;12.45;9.38;;;17.70;96.80;;;;;;5076789;28;20029;-72
2022/09/11 01:53:02;;;;;;;15.82;13.20;;;17.70;96.90;;;;;;5076868;28;20024;-72
2022/09/11 01:55:40;;;;;;;13.32;11.77;;;17.70;96.90;;;;;;5076789;28;20107;-72
2022/09/11 01:58:11;;;;;;;14.75;12.70;;;17.80;96.80;;;;;;5076634;28;20052;-72
2022/09/11 02:00:39;;;;;;;16.05;12.48;;;17.80;96.60;;;;;;5076786;28;20028;-72
2022/09/11 02:03:30;;;;;;;11.35;9.07;;;17.90;96.50;;;;;;5076422;28;20028;-72
2022/09/11 02:06:00;;;;;;;9.90;8.15;;;17.90;96.50;;;;;;5076849;28;20039;-72
2022/09/11 02:08:31;;;;;;;17.23;14.88;;;17.90;96.40;;;;;;5076499;28;20051;-72
2022/09/11 02:11:04;;;;;;;17.05;14.40;;;18.00;96.20;;;;;;5076666;28;20028;-72
2022/09/11 02:13:29;;;;;;;;;;;18.00;96.20;;;;;;5076596;28;20480;-72
2022/09/11 02:16:02;;;;;;;18.52;14.55;;;18.00;96.10;;;;;;5076389;28;19926;-72
2022/09/11 02:18:40;;;;;;;21.35;15.85;;;18.00;96.00;;;;;;5076183;28;20033;-72
2022/09/11 02:21:06;;;;;;;17.95;14.43;;;17.90;96.00;;;;;;5076340;28;20078;-73
2022/09/11 02:23:32;;;;;;;14.13;10.55;;;17.90;96.10;;;;;;5076367;28;20024;-72
2022/09/11 02:25:57;;;;;;;12.02;10.73;;;18.00;96.10;;;;;;5075742;28;20027;-72
2022/09/11 02:28:24;;;;;;;16.60;14.80;;;18.10;96.10;;;;;;5075858;28;20056;-72
2022/09/11 02:30:50;;;;;;;16.85;14.00;;;18.10;95.90;;;;;;5075887;28;20504;-72
2022/09/11 02:33:35;;;;;;;14.02;12.40;;;18.10;95.80;;;;;;5075938;28;20117;-72
2022/09/11 02:36:30;;;;;;;8.30;7.38;;;18.20;95.80;;;;;;5075981;28;20056;-72
2022/09/11 02:39:40;;;;;;;12.98;10.43;;;18.20;95.70;;;;;;5074340;28;20029;-72
2022/09/11 02:42:37;;;;;;;20.05;16.27;;;18.30;95.70;;;;;;5033681;28;20032;-72
2022/09/11 02:45:34;;;;;;;16.88;12.63;;;18.20;95.40;;;;;;5033370;28;20022;-72
2022/09/11 02:48:06;;;;;;;15.32;13.10;;;18.20;95.50;;;;;;5071253;28;20040;-72
2022/09/11 02:50:57;;;;;;;17.55;14.20;;;18.20;95.50;;;;;;5075631;28;20013;-72
2022/09/11 02:53:31;;;;;;;17.52;14.40;;;18.20;95.50;;;;;;5075635;28;20028;-72
2022/09/11 02:56:13;;;;;;;16.38;12.57;;;18.30;95.40;;;;;;5075638;28;20047;-72
2022/09/11 02:59:23;;;;;;;16.08;13.32;;;18.30;95.40;;;;;;5075779;28;20028;-72
2022/09/11 03:01:52;;;;;;;11.88;10.05;;;18.30;95.30;;;;;;5033190;28;20026;-72
2022/09/11 03:04:19;;;;;;;13.82;11.43;;;18.40;95.30;;;;;;5070083;28;20037;-72
2022/09/11 03:06:47;;;;;;;13.25;11.85;;;18.40;95.20;;;;;;5075529;28;20052;-73
2022/09/11 03:09:13;;;;;;;13.13;11.73;;;18.50;95.10;;;;;;5075627;28;20017;-73
2022/09/11 03:11:39;;;;;;;13.45;11.50;;;18.50;95.00;;;;;;5075389;28;20025;-72
2022/09/11 03:14:04;;;;;;;12.55;10.93;;;18.50;95.20;;;;;;5075282;28;20479;-72
2022/09/11 03:16:30;;;;;;;14.60;11.40;;;18.50;94.90;;;;;;5075350;28;20039;-72
2022/09/11 03:18:55;;;;;;;14.10;11.85;;;18.50;94.80;;;;;;5075329;28;20503;-73
2022/09/11 03:21:21;;;;;;;13.90;12.05;;;18.50;94.60;;;;;;5075288;28;20031;-72
2022/09/11 03:23:46;;;;;;;15.05;12.13;;;18.50;94.50;;;;;;5074735;28;20456;-72
2022/09/11 03:26:12;;;;;;;12.80;11.15;;;18.40;94.50;;;;;;5075134;28;20028;-72
2022/09/11 03:28:38;;;;;;;12.80;10.85;;;18.40;94.50;;;;;;5075009;28;20369;-72
2022/09/11 03:31:06;;;;;;;12.80;11.15;;;18.30;94.50;;;;;;5074983;28;20447;-72
2022/09/11 03:33:32;;;;;;;11.32;9.90;;;18.30;94.50;;;;;;5074695;28;20468;-72
2022/09/11 03:35:58;;;;;;;11.00;8.50;;;18.40;94.60;;;;;;5074694;28;20028;-72
2022/09/11 03:38:24;;;;;;;10.95;8.60;;;18.40;94.60;;;;;;5074592;28;20052;-73
2022/09/11 03:40:49;;;;;;;12.02;10.27;;;18.40;94.70;;;;;;5075092;28;20056;-72
2022/09/11 03:43:15;;;;;;;10.38;9.38;;;18.40;94.50;;;;;;5074655;28;20050;-72
2022/09/11 03:45:42;;;;;;;13.95;11.60;;;18.30;94.30;;;;;;5074471;28;20025;-72
2022/09/11 03:48:07;;;;;;;10.15;9.15;;;18.20;94.20;;;;;;5074404;28;20056;-72
2022/09/11 03:50:33;;;;;;;8.50;7.70;;;18.00;94.30;;;;;;5074741;28;20047;-72
2022/09/11 03:52:59;;;;;;;11.85;9.82;;;18.00;94.50;;;;;;5074555;28;20521;-72
2022/09/11 03:55:24;;;;;;;10.52;8.75;;;18.00;94.40;;;;;;5073622;28;20123;-72
2022/09/11 03:57:50;;;;;;;10.35;9.10;;;17.90;94.40;;;;;;5074534;28;20498;-72
2022/09/11 04:00:16;;;;;;;10.10;9.00;;;17.90;94.40;;;;;;5074674;28;20025;-72
2022/09/11 04:02:41;;;;;;;9.45;8.55;;;18.00;94.30;;;;;;5073958;28;20073;-72
2022/09/11 04:05:08;;;;;;;9.02;7.72;;;18.00;94.30;;;;;;5074395;28;20028;-72
2022/09/11 04:07:34;;;;;;;10.02;8.30;;;18.00;94.20;;;;;;5074289;28;20028;-72
2022/09/11 04:10:00;;;;;;;8.13;7.32;;;18.00;94.20;;;;;;5074137;28;20020;-72
2022/09/11 04:12:25;;;;;;;10.27;9.20;;;18.00;94.20;;;;;;5074026;28;20039;-72
2022/09/11 04:14:51;;;;;;;11.75;8.18;;;18.00;94.10;;;;;;5073854;28;20028;-72
2022/09/11 04:17:17;;;;;;;8.77;7.88;;;18.00;94.10;;;;;;5073819;28;20039;-72
2022/09/11 04:19:43;;;;;;;11.40;8.30;;;18.00;94.10;;;;;;5074145;28;20032;-72
2022/09/11 04:22:09;;;;;;;8.82;7.90;;;18.00;94.30;;;;;;5073991;28;20021;-73
2022/09/11 04:24:35;;;;;;;9.50;8.60;;;18.00;94.10;;;;;;5073772;28;20472;-72
2022/09/11 04:27:01;;;;;;;10.52;8.77;;;17.90;94.00;;;;;;5073627;28;20111;-72
2022/09/11 04:29:27;;;;;;;10.80;9.50;;;18.00;94.00;;;;;;5073290;28;20021;-73
2022/09/11 04:31:53;;;;;;;11.35;10.15;;;17.90;94.00;;;;;;5073825;28;20036;-72
2022/09/11 04:34:18;;;;;;;12.73;11.07;;;17.90;94.00;;;;;;5073760;28;20027;-72
2022/09/11 04:36:44;;;;;;;14.77;10.80;;;17.80;94.00;;;;;;5073547;28;20071;-72
2022/09/11 04:39:10;;;;;;;11.00;9.32;;;17.60;94.20;;;;;;5073471;28;20055;-72
2022/09/11 04:41:36;;;;;;;9.52;8.32;;;17.50;94.50;;;;;;5073781;28;20035;-72
2022/09/11 04:44:02;;;;;;;8.77;7.88;;;17.40;94.60;;;;;;5073459;28;20020;-72
2022/09/11 04:46:27;;;;;;;9.32;7.40;;;17.50;94.60;;;;;;5073584;28;20056;-72
2022/09/11 04:48:58;;;;;;;7.78;6.95;;;17.50;94.50;;;;;;5073623;28;20158;-72
2022/09/11 04:51:27;;;;;;;7.88;6.80;;;17.50;94.50;;;;;;5073681;28;20408;-72
2022/09/11 04:53:57;;;;;;;7.60;6.53;;;17.60;94.40;;;;;;5073284;28;20028;-72
2022/09/11 04:56:24;;;;;;;8.13;6.35;;;17.60;94.40;;;;;;5073339;28;20032;-72
2022/09/11 04:58:55;;;;;;;8.60;6.90;;;17.70;94.30;;;;;;5073196;28;20021;-72
2022/09/11 05:01:22;;;;;;;10.13;7.63;;;17.70;94.20;;;;;;5073208;28;20066;-72
2022/09/11 05:03:48;;;;;;;9.13;8.00;;;17.70;94.40;;;;;;5073234;28;20108;-72
2022/09/11 05:06:15;;;;;;;9.70;8.70;;;17.70;94.10;;;;;;5073326;28;20196;-72
2022/09/11 05:08:42;;;;;;;10.00;8.48;;;17.70;94.00;;;;;;5073386;28;20082;-72
2022/09/11 05:11:12;;;;;;;11.43;9.13;;;17.80;94.10;;;;;;5073383;28;20100;-72
2022/09/11 05:13:38;;;;;;;9.35;8.45;;;17.80;94.20;;;;;;5072825;28;20107;-72
2022/09/11 05:16:14;;;;;;;9.57;8.57;;;17.80;94.20;;;;;;5073206;28;20040;-72
2022/09/11 05:18:41;;;;;;;9.88;8.88;;;17.90;94.10;;;;;;5073334;28;20023;-72
2022/09/11 05:21:13;;;;;;;11.70;8.50;;;17.90;94.10;;;;;;5073007;28;20663;-72
2022/09/11 05:23:38;;;;;;;10.57;9.48;;;17.90;94.10;;;;;;5073243;28;20020;-72
2022/09/11 05:26:12;;;;;;;9.93;8.88;;;17.80;94.10;;;;;;5072962;28;20020;-72
2022/09/11 05:28:37;;;;;;;10.20;7.72;;;17.80;94.10;;;;;;5072848;28;20132;-72
2022/09/11 05:31:15;;;;;;;10.52;7.63;;;17.70;94.00;;;;;;5073135;28;20448;-72
2022/09/11 05:33:42;;;;;;;9.07;7.35;;;17.70;93.90;;;;;;5073073;28;20099;-72
2022/09/11 05:36:09;;;;;;;6.85;6.15;;;17.60;93.80;;;;;;5073012;28;20120;-72
2022/09/11 05:38:37;;;;;;;5.40;4.78;;;17.50;93.90;;;;;;5072829;28;20491;-72
2022/09/11 05:41:09;;;;;;;6.57;5.90;;;17.40;94.00;;;;;;5072637;28;20107;-72
2022/09/11 05:43:35;;;;;;;5.80;5.30;;;17.30;93.90;;;;;;5073183;28;20044;-72
2022/09/11 05:46:01;;;;;;;6.28;5.68;;;17.10;94.40;;;;;;5072983;28;20025;-72
2022/09/11 05:48:27;;;;;;;6.72;5.80;;;17.00;94.50;;;;;;5072801;28;20468;-72
2022/09/11 05:50:58;;;;;;;5.80;5.07;;;16.90;94.50;;;;;;5072412;28;20452;-72
2022/09/11 05:53:25;;;;;;;7.47;5.63;;;16.80;94.80;;;;;;5072740;28;20031;-72
2022/09/11 05:55:51;;;;;;;6.75;5.75;;;16.80;94.90;;;;;;5072894;28;20043;-72
2022/09/11 05:58:17;;;;;;;6.63;5.55;;;16.90;95.20;;;;;;5072612;28;20021;-72
2022/09/11 06:00:45;;;;;;;6.03;5.50;;;17.00;94.90;;;;;;5072743;28;20039;-72
2022/09/11 06:03:15;;;;;;;7.10;5.85;;;17.10;94.90;;;;;;5072716;28;20023;-72
2022/09/11 06:05:41;;;;;;;6.07;5.47;;;17.20;94.90;;;;;;5072616;28;20503;-72
2022/09/11 06:08:08;;;;;;;6.60;5.18;;;17.20;94.80;;;;;;5072876;28;20024;-72
2022/09/11 06:10:46;;;;;;;7.35;5.60;;;17.30;94.80;;;;;;5072855;28;20025;-72
2022/09/11 06:13:12;;;;;;;5.82;5.22;;;17.40;94.70;;;;;;5072644;28;20090;-72
2022/09/11 06:15:47;;;;;;;6.72;6.07;;;17.50;94.70;;;;;;5072221;28;20033;-72
2022/09/11 06:18:14;;;;;;;8.80;6.55;;;17.60;94.70;;;;;;5072944;28;20025;-72
2022/09/11 06:20:40;;;;;;;8.15;7.35;;;17.60;94.60;;;;;;5076375;28;20033;-72
2022/09/11 06:23:07;;;;;;;9.77;7.78;;;17.70;94.90;;;;;;5075778;28;20487;-72
2022/09/11 06:25:34;;;;;;;9.57;8.60;;;17.80;94.70;;;;;;5076122;28;20078;-72
2022/09/11 06:27:59;;;;;;;14.55;10.45;;;17.70;94.80;;;;;;5075874;28;20040;-72
2022/09/11 06:30:25;;;;;;;12.55;10.38;;;17.70;95.10;;;;;;5075875;28;20078;-72
2022/09/11 06:32:52;;;;;;;12.98;10.68;;;17.70;95.20;;;;;;5076186;28;20045;-72
2022/09/11 06:35:17;;;;;;;12.30;10.57;;;17.70;95.40;;;;;;5075813;28;20033;-72
2022/09/11 06:37:43;;;;;;;11.25;9.20;;;17.80;95.50;;;;;;5076048;28;20064;-72
2022/09/11 06:40:09;;;;;;;11.48;9.57;;;17.80;95.50;;;;;;5075776;28;20021;-72
2022/09/11 06:42:35;;;;;;;13.45;11.30;;;17.80;95.50;;;;;;5076138;28;20052;-72
2022/09/11 06:45:01;;;;;;;11.85;10.02;;;17.90;95.40;;;;;;5075679;28;20055;-72
2022/09/11 06:47:27;;;;;;;11.30;10.10;;;18.00;95.50;;;;;;5075423;28;20539;-72
2022/09/11 06:49:53;;;;;;;13.40;11.20;;;18.00;95.50;;;;;;5075841;28;20135;-72
2022/09/11 06:52:18;;;;;;;14.30;11.57;;;18.00;95.60;;;;;;5075598;28;20112;-73
2022/09/11 06:54:44;;;;;;;11.32;10.18;;;18.00;95.60;;;;;;5075426;28;20032;-72
2022/09/11 06:57:09;;;;;;;11.65;10.43;;;18.10;95.70;;;;;;5075812;28;20034;-72
2022/09/11 06:59:35;;;;;;;11.73;10.45;;;18.20;95.90;;;;;;5075660;28;20549;-72
2022/09/11 07:02:00;;;;;;;11.40;9.88;;;18.30;95.70;;;;;;5075714;28;20035;-72
2022/09/11 07:04:27;;;;;;;11.32;9.90;;;18.40;95.60;;;;;;5075349;28;20025;-73
2022/09/11 07:06:53;;;;;;;11.60;9.75;;;18.40;95.50;;;;;;5075426;28;20361;-73
2022/09/11 07:09:18;;;;;;;10.02;9.02;;;18.40;95.50;;;;;;5075584;28;20038;-72
2022/09/11 07:11:45;;;;;;;11.43;9.50;;;18.50;95.50;;;;;;5075544;28;20059;-72
2022/09/11 07:14:11;;;;;;;9.48;8.57;;;18.60;95.50;;;;;;5075204;28;20024;-72
2022/09/11 07:16:37;;;;;;;9.23;8.32;;;18.60;95.70;;;;;;5075397;28;20387;-72
2022/09/11 07:19:03;;;;;;;10.35;9.25;;;18.70;95.40;;;;;;5075150;28;20028;-72
2022/09/11 07:21:29;;;;;;;12.82;10.35;;;18.70;95.60;;;;;;5075157;28;20029;-72
2022/09/11 07:23:57;;;;;;;9.45;8.52;;;18.70;96.20;;;;;;5075347;28;20047;-73
2022/09/11 07:26:27;;;;;;;11.02;9.40;;;18.80;96.00;;;;;;5075033;28;20078;-72
2022/09/11 07:28:54;;;;;;;11.73;10.35;;;18.80;95.80;;;;;;5074431;28;20044;-73
2022/09/11 07:31:31;;;;;;;11.93;10.68;;;18.80;95.70;;;;;;5073966;28;20074;-73
2022/09/11 07:33:58;;;;;;;13.55;11.40;;;18.90;95.70;;;;;;5074862;28;20395;-73
2022/09/11 07:36:30;;;;;;;13.25;11.93;;;18.90;96.00;;;;;;5074706;28;20059;-73
2022/09/11 07:38:57;;;;;;;12.77;11.50;;;18.90;96.20;;;;;;5074663;28;20021;-72
2022/09/11 07:41:24;;;;;;;15.95;12.43;;;19.00;96.50;;;;;;5074459;28;20040;-73
2022/09/11 07:43:59;;;;;;;15.48;13.23;;;19.10;96.50;;;;;;5074565;28;20079;-73
2022/09/11 07:46:25;;;;;;;15.20;13.02;;;19.20;96.80;;;;;;5074520;28;20032;-73
2022/09/11 07:48:51;;;;;;;16.13;13.57;;;19.30;96.70;;;;;;5074582;28;20029;-73
2022/09/11 07:51:18;;;;;;;18.00;15.57;;;19.40;96.50;;;;;;5074306;28;20032;-73
2022/09/11 07:53:46;;;;;;;16.40;14.25;;;19.50;96.40;;;;;;5074659;28;20104;-73
2022/09/11 07:56:15;;;;;;;17.70;13.75;;;19.50;96.40;;;;;;5074580;28;20067;-73
2022/09/11 07:58:42;;;;;;;17.15;14.95;;;19.60;96.40;;;;;;5074297;28;20052;-73
2022/09/11 08:01:10;;;;;;;14.80;12.05;;;19.70;96.30;;;;;;5074089;28;20036;-73
2022/09/11 08:03:36;;;;;;;16.10;14.05;;;19.90;96.30;;;;;;5074186;28;20108;-73
2022/09/11 08:06:08;;;;;;;14.38;12.48;;;20.00;96.00;;;;;;5073991;28;20044;-73
2022/09/11 08:08:34;;;;;;;15.60;13.60;;;20.00;95.60;;;;;;5074045;28;20025;-73
2022/09/11 08:11:09;;;;;;;15.40;13.07;;;20.10;95.50;;;;;;5073830;28;20074;-73
2022/09/11 08:13:35;;;;;;;12.63;9.88;;;20.20;95.40;;;;;;5073996;28;20020;-74
2022/09/11 08:16:02;;;;;;;12.27;9.70;;;20.30;95.00;;;;;;5074234;28;20029;-73
2022/09/11 08:18:28;;;;;;;13.70;12.30;;;20.40;94.90;;;;;;5073910;28;20028;-73
2022/09/11 08:21:09;;;;;;;13.60;11.00;;;20.40;95.10;;;;;;5073904;28;20029;-73
2022/09/11 08:23:36;;;;;;;13.20;9.85;;;20.40;95.40;;;;;;5073851;28;20055;-73
2022/09/11 08:26:13;;;;;;;12.18;10.18;;;20.40;95.60;;;;;;5074009;28;20028;-73
2022/09/11 08:28:41;;;;;;;9.40;6.03;;;20.50;95.70;;;;;;5073660;28;20074;-73
2022/09/11 08:31:07;;;;;;;12.57;6.95;;;20.60;94.90;;;;;;5074007;28;20024;-74
2022/09/11 08:33:33;;;;;;;8.32;5.55;;;20.70;94.40;;;;;;5073895;28;20070;-73
2022/09/11 08:36:01;;;;;;;7.07;5.22;;;20.50;93.70;;;;;;5073593;28;20103;-73
2022/09/11 08:38:28;;;;;;;15.52;13.45;;;20.40;93.80;;;;;;5073845;28;20024;-74
2022/09/11 08:40:55;;;;;;;23.10;16.77;;;20.30;94.40;;;;;;5073653;28;20035;-73
2022/09/11 08:43:31;;;;;;;20.13;17.48;;;20.30;94.80;;;;;;5073572;28;20024;-73
2022/09/11 08:46:04;;;;;;;19.02;17.15;;;20.20;95.20;;;;;;5073587;28;20423;-73
2022/09/11 08:48:55;;;;;;;21.45;18.20;;;20.10;95.70;;;;;;5073738;28;20024;-73
2022/09/11 08:51:21;;;;;;;18.95;16.95;;;19.90;95.70;;;;;;5053684;28;20039;-73
2022/09/11 08:53:47;;;;;;;18.75;16.90;;;19.90;95.90;;;;;;5073300;28;20028;-73
2022/09/11 08:56:18;;;;;;;19.33;16.42;;;19.80;96.00;;;;;;5073297;28;20369;-73
2022/09/11 08:59:10;;;;;;;17.38;15.68;;;19.80;96.10;;;;;;5073516;28;20028;-73
2022/09/11 09:02:00;;;;;;;18.38;16.48;;;19.80;96.20;;;;;;5073582;28;20025;-73
2022/09/11 09:04:52;;;;;;;17.25;15.52;;;19.90;96.30;;;;;;5073362;28;20025;-73
2022/09/11 09:07:41;;;;;;;17.40;14.93;;;20.10;96.40;;;;;;5073574;28;20078;-73
2022/09/11 09:10:25;;;;;;;16.90;15.10;;;20.40;96.10;;;;;;5073089;28;20434;-73
2022/09/11 09:12:55;;;;;;;14.10;12.60;;;20.60;95.70;;;;;;5073171;28;20569;-74
2022/09/11 09:15:37;;;;;;;14.45;12.32;;;20.80;95.40;;;;;;5073251;28;20051;-73
2022/09/11 09:18:15;;;;;;;12.67;10.60;;;20.90;95.00;;;;;;5073007;28;20428;-73
2022/09/11 09:20:54;;;;;;;11.68;10.48;;;21.10;94.70;;;;;;5073152;28;20399;-74
2022/09/11 09:23:27;;;;;;;11.50;10.13;;;21.20;94.30;;;;;;5072951;28;20472;-74
2022/09/11 09:25:54;;;;;;;14.02;12.50;;;21.40;94.10;;;;;;5072939;28;20025;-73
2022/09/11 09:28:26;;;;;;;12.77;11.20;;;21.60;94.00;;;;;;5072994;28;20056;-73
2022/09/11 09:30:58;;;;;;;11.93;10.75;;;21.60;93.60;;;;;;5073048;28;20048;-73
2022/09/11 09:33:34;;;;;;;;;;;21.70;93.40;;;;;;5073726;28;20024;-73
2022/09/11 09:36:13;;;;;;;10.80;9.70;;;21.80;93.10;;;;;;5072675;28;19996;-73
2022/09/11 09:38:39;;;;;;;12.68;10.52;;;21.90;92.90;;;;;;5073141;28;20024;-73
2022/09/11 09:41:24;;;;;;;10.57;9.45;;;22.00;92.80;;;;;;5072755;28;20032;-74
2022/09/11 09:44:09;;;;;;;13.80;9.77;;;22.10;92.30;;;;;;5072823;28;20426;-73
2022/09/11 09:46:47;;;;;;;12.70;9.07;;;22.10;92.10;;;;;;5073077;28;20020;-74
2022/09/11 09:49:22;;;;;;;13.70;10.48;;;22.10;92.00;;;;;;5072818;28;20027;-73
2022/09/11 09:51:48;;;;;;;12.30;8.65;;;22.10;92.10;;;;;;5072781;28;20028;-74
2022/09/11 09:54:16;;;;;;;9.10;7.13;;;22.00;91.90;;;;;;5074563;28;20079;-73
2022/09/11 09:56:48;;;;;;;7.07;5.88;;;21.90;91.80;;;;;;5076514;28;20067;-73
2022/09/11 09:59:18;;;;;;;9.53;7.47;;;21.90;92.10;;;;;;5076817;28;20028;-73
2022/09/11 10:01:49;;;;;;;10.90;8.85;;;21.90;92.10;;;;;;5076797;28;20043;-73
2022/09/11 10:04:21;;;;;;;9.55;8.27;;;21.90;91.50;;;;;;5076857;28;20020;-73
2022/09/11 10:06:50;;;;;;;8.77;6.82;;;21.90;91.40;;;;;;5076410;28;20425;-73
2022/09/11 10:09:45;;;;;;;10.07;7.45;;;21.90;91.40;;;;;;5076627;28;20075;-73
2022/09/11 10:12:25;;;;;;;9.88;8.00;;;21.80;91.40;;;;;;5069189;28;20033;-73
2022/09/11 10:14:57;;;;;;;9.45;8.23;;;21.70;91.40;;;;;;5076336;28;20050;-73
2022/09/11 10:17:30;;;;;;;7.85;6.45;;;21.60;91.50;;;;;;5076266;28;20040;-74
2022/09/11 10:20:24;;;;;;;9.27;5.90;;;21.50;91.80;;;;;;5076324;28;20032;-74
2022/09/11 10:22:51;;;;;;;6.18;4.95;;;21.50;92.00;;;;;;5076235;28;20031;-74
2022/09/11 10:25:25;;;;;;;5.93;5.30;;;21.50;91.70;;;;;;5076079;28;20533;-74
2022/09/11 10:28:18;;;;;;;7.75;3.65;;;21.50;91.40;;;;;;5075725;28;20052;-73
2022/09/11 10:30:52;;;;;;;;;;;21.40;91.40;;;;;;5076433;28;20028;-74
2022/09/11 10:33:25;;;;;;;4.65;4.20;;;21.50;91.50;;;;;;5075952;28;20361;-73
2022/09/11 10:35:54;;;;;;;8.18;6.00;;;21.50;91.40;;;;;;5075717;28;20032;-73
2022/09/11 10:38:40;;;;;;;12.48;6.10;;;21.50;91.80;;;;;;5075650;28;20029;-73
2022/09/11 10:41:08;;;;;;;8.95;6.53;;;21.60;92.60;;;;;;5074772;28;20032;-74
2022/09/11 10:43:42;;;;;;;6.82;5.20;;;21.90;91.80;;;;;;5075541;28;20033;-74
2022/09/11 10:46:36;;;;;;;7.68;5.55;;;22.10;91.30;;;;;;5075561;28;20074;-74
2022/09/11 10:49:01;;;;;;;13.07;11.07;;;22.50;90.80;;;;;;5075850;28;20035;-74
2022/09/11 10:51:28;;;;;;;20.40;14.65;;;22.70;90.70;;;;;;5075761;28;20346;-74
2022/09/11 10:54:00;;;;;;;15.27;12.43;;;22.80;91.10;;;;;;5075751;28;20075;-73
2022/09/11 10:56:26;;;;;;;16.77;12.45;;;22.90;90.50;;;;;;5075254;28;20043;-73
2022/09/11 10:58:58;;;;;;;18.50;14.18;;;22.90;90.30;;;;;;5075226;28;20035;-74
2022/09/11 11:01:25;;;;;;;21.73;17.77;;;22.80;90.40;;;;;;5075686;28;20059;-74
2022/09/11 11:03:51;;;;;;;17.88;15.82;;;22.60;90.40;;;;;;5075415;28;20043;-74
2022/09/11 11:06:22;;;;;;;16.17;14.35;;;22.30;91.10;;;;;;5074925;28;20560;-74
2022/09/11 11:09:10;;;;;;;15.13;12.63;;;22.20;91.10;;;;;;5075229;28;20021;-74
2022/09/11 11:11:42;;;;;;;17.58;11.60;;;22.10;91.40;;;;;;5075099;28;20017;-74
2022/09/11 11:14:22;;;;;;;14.00;11.30;;;22.10;91.10;;;;;;5075370;28;20021;-73
2022/09/11 11:16:58;;;;;;;12.13;10.35;;;22.00;91.00;;;;;;5075104;28;20043;-73
2022/09/11 11:19:53;;;;;;;10.93;9.82;;;22.00;91.10;;;;;;5075069;28;20028;-74
2022/09/11 11:22:47;;;;;;;12.50;10.32;;;22.10;91.10;;;;;;5074961;28;20388;-74
2022/09/11 11:25:26;;;;;;;12.93;11.05;;;22.30;90.40;;;;;;5075296;28;20017;-74
2022/09/11 11:27:59;;;;;;;14.70;11.23;;;22.30;90.20;;;;;;5074692;28;20109;-73
2022/09/11 11:31:09;;;;;;;14.45;12.23;;;22.20;90.50;;;;;;5074525;28;20048;-73
2022/09/11 11:33:50;;;;;;;19.75;12.55;;;22.30;90.80;;;;;;5075057;28;20043;-74
2022/09/11 11:36:36;;;;;;;17.27;13.68;;;22.40;91.10;;;;;;5074911;28;20094;-73
2022/09/11 11:39:18;;;;;;;14.38;10.75;;;22.30;90.40;;;;;;5074581;28;20021;-73
2022/09/11 11:42:25;;;;;;;13.75;12.05;;;22.20;90.90;;;;;;5074827;28;20060;-73
2022/09/11 11:44:57;;;;;;;12.00;10.48;;;22.20;90.80;;;;;;5074425;28;20028;-73
2022/09/11 11:47:35;;;;;;;14.50;11.67;;;22.20;90.90;;;;;;5074481;28;20060;-73
2022/09/11 11:50:07;;;;;;;14.27;12.50;;;22.30;91.00;;;;;;5074315;28;20414;-74
2022/09/11 11:52:49;;;;;;;11.05;9.20;;;22.30;90.50;;;;;;5074392;28;20052;-73
2022/09/11 11:55:35;;;;;;;14.55;10.68;;;22.20;90.30;;;;;;5074405;28;20029;-74
2022/09/11 11:58:35;;;;;;;10.10;8.75;;;22.20;90.20;;;;;;5074553;28;20379;-73
2022/09/11 12:01:04;;;;;;;10.82;8.40;;;22.20;90.40;;;;;;5068104;28;20032;-73
2022/09/11 12:03:51;;;;;;;11.65;7.78;;;22.20;90.50;;;;;;5074079;28;20032;-74
2022/09/11 12:06:17;;;;;;;9.18;7.00;;;22.30;91.00;;;;;;5074179;28;20403;-74
2022/09/11 12:08:44;;;;;;;8.70;7.03;;;22.40;90.70;;;;;;5073951;28;20103;-74
2022/09/11 12:11:14;;;;;;;7.72;5.50;;;22.40;90.20;;;;;;5073571;28;20040;-73
2022/09/11 12:13:45;;;;;;;9.00;7.32;;;22.50;90.00;;;;;;5073778;28;20028;-74
2022/09/11 12:16:32;;;;;;;9.48;7.32;;;22.40;90.00;;;;;;5073118;28;20123;-74
2022/09/11 12:19:06;;;;;;;11.40;7.68;;;22.60;90.60;;;;;;5074141;28;20071;-73
2022/09/11 12:21:35;;;;;;;10.35;6.18;;;22.60;89.40;;;;;;5073622;28;20066;-74
2022/09/11 12:24:01;;;;;;;7.78;6.10;;;22.60;89.60;;;;;;5073610;28;20028;-73
2022/09/11 12:26:29;;;;;;;9.93;8.20;;;22.80;90.00;;;;;;5073865;28;20048;-73
2022/09/11 12:29:18;;;;;;;10.15;6.75;;;22.90;89.00;;;;;;5073358;28;20095;-74
2022/09/11 12:32:05;;;;;;;9.18;7.40;;;23.10;89.70;;;;;;5073350;28;20480;-74
2022/09/11 12:34:37;;;;;;;9.68;6.57;;;23.40;86.70;;;;;;5066336;28;20036;-74
2022/09/11 12:37:06;;;;;;;8.23;6.57;;;23.50;86.60;;;;;;5073293;28;20059;-73
2022/09/11 12:39:38;;;;;;;8.10;6.85;;;23.70;86.00;;;;;;5073707;28;20060;-74
2022/09/11 12:42:24;;;;;;;9.05;5.15;;;23.80;84.50;;;;;;5073557;28;20028;-74
2022/09/11 12:44:50;;;;;;;7.68;5.80;;;23.90;84.80;;;;;;5073290;28;20486;-74
2022/09/11 12:47:22;;;;;;;9.07;6.70;;;24.00;84.60;;;;;;5073376;28;20104;-74
2022/09/11 12:50:14;;;;;;;8.18;6.05;;;24.00;83.80;;;;;;5073176;28;20164;-74
2022/09/11 12:52:48;;;;;;;9.10;6.27;;;24.10;82.00;;;;;;5072948;28;20031;-74
2022/09/11 12:55:48;;;;;;;6.90;4.75;;;24.10;82.60;;;;;;5073127;28;20071;-74
2022/09/11 12:58:17;;;;;;;6.07;4.63;;;24.20;82.40;;;;;;5073158;28;20032;-74
2022/09/11 13:00:46;;;;;;;5.10;4.60;;;24.30;83.00;;;;;;5073185;28;20066;-74